Create Tblcommutelog Verified Points Advance Search
| # | Trip ID | Id Commuter | Trip Date | Trip Num | Current Lat | Current Lng | Delta Distance | Current Time | Activity | Activity Confidence | Current Speed | |
|---|---|---|---|---|---|---|---|---|---|---|---|---|
| 71821 | 250515_779005_16646666_1607 | 779005 | (not set) | (not set) | 38.9934768 | -77.0304801 | 8.5913 | 2025-05-15 21:20:01.338 | still | 100 | 0.48280239970674 | |
| 71822 | 250515_779005_16646666_1607 | 779005 | (not set) | (not set) | 38.9943115 | -77.0307951 | 8.6502 | 2025-05-15 21:20:01.343 | still | 100 | 2.0250878432144 | |
| 71823 | 250515_779005_16646666_1608 | 779005 | (not set) | (not set) | 38.9943115 | -77.0307951 | 8.6502 | 2025-05-15 21:20:01.378 | still | 100 | 2.0250878432144 | |
| 71824 | 250515_779005_16646666_1607 | 779005 | (not set) | (not set) | 38.9949617 | -77.0310167 | 8.6502 | 2025-05-15 21:20:01.384 | still | 100 | 2.0832029468828 | |
| 71825 | 250515_779005_16646666_1608 | 779005 | (not set) | (not set) | 38.9949617 | -77.0310167 | 8.6502 | 2025-05-15 21:20:01.385 | still | 100 | 2.0832029468828 | |
| 71826 | 250515_779005_16646666_1607 | 779005 | (not set) | (not set) | 38.9939473 | -77.0302268 | 8.6502 | 2025-05-15 21:20:01.418 | still | 100 | 0.76890752545889 | |
| 71827 | 250515_779005_16646666_1607 | 779005 | (not set) | (not set) | 38.9931185 | -77.0308306 | 8.6502 | 2025-05-15 21:20:01.423 | still | 100 | 1.5691077990469 | |
| 71828 | 250515_779005_16646666_1608 | 779005 | (not set) | (not set) | 38.9933631 | -77.0323583 | 8.7568 | 2025-05-15 21:20:01.479 | still | 100 | 2.3424857170957 | |
| 71829 | 250515_779005_16646666_1607 | 779005 | (not set) | (not set) | 38.9925522 | -77.030465 | 8.819 | 2025-05-15 21:20:01.488 | still | 100 | -0.44703925898772 | |
| 71830 | 250515_779005_16646666_1607 | 779005 | (not set) | (not set) | 38.9937047 | -77.0332379 | 8.819 | 2025-05-15 21:20:01.521 | still | 100 | -0.44703925898772 | |
| 71831 | 250515_779005_16646666_1607 | 779005 | (not set) | (not set) | 38.9920201 | -77.035082 | 8.819 | 2025-05-15 21:20:01.586 | still | 100 | -0.44703925898772 | |
| 71832 | 250515_779005_16646666_1607 | 779005 | (not set) | (not set) | 38.9949708 | -77.0311071 | 8.979 | 2025-05-15 21:20:01.76 | still | 100 | 1.0281902956718 | |
| 71833 | 250515_779005_16646666_1607 | 779005 | (not set) | (not set) | 38.9939283 | -77.0325776 | 8.979 | 2025-05-15 21:20:01.761 | still | 100 | 2.2396666875285 | |
| 71834 | 250515_779005_16646666_1607 | 779005 | (not set) | (not set) | 38.9928439 | -77.0314448 | 8.979 | 2025-05-15 21:20:01.799 | still | 100 | 2.8699920427012 | |
| 71835 | 250515_779005_16646666_1607 | 779005 | (not set) | (not set) | 38.9928439 | -77.0314448 | 8.979 | 2025-05-15 21:20:01.803 | still | 100 | 2.8699920427012 | |
| 71836 | 250515_779005_16646666_1607 | 779005 | (not set) | (not set) | 38.9942681 | -77.0312234 | 9.065 | 2025-05-15 21:20:01.809 | still | 100 | 1.8418017470294 | |
| 71837 | 250515_779005_16646666_1607 | 779005 | (not set) | (not set) | 38.9942681 | -77.0312234 | 9.065 | 2025-05-15 21:20:01.813 | still | 100 | 1.8418017470294 | |
| 71838 | 250515_779005_16646666_1607 | 779005 | (not set) | (not set) | 38.9928048 | -77.0298504 | 9.065 | 2025-05-15 21:20:01.829 | still | 100 | -0.44703925898772 | |
| 71839 | 250515_779005_16646666_1607 | 779005 | (not set) | (not set) | 38.9928048 | -77.0298504 | 9.065 | 2025-05-15 21:20:01.838 | still | 100 | -0.44703925898772 | |
| 71840 | 250515_779005_16646666_1608 | 779005 | (not set) | (not set) | 38.9928048 | -77.0298504 | 9.065 | 2025-05-15 21:20:01.858 | still | 100 | -0.44703925898772 |